Time;durP1;ratioP1;P1;durP2;ratioP2;P2;SDS_P1;SDS_P2;PMS_P1;PMS_P2;Temp;Humidity;BMP_temperature;BMP_pressure;BME280_temperature;BME280_humidity;BME280_pressure;Samples;Min_cycle;Max_cycle;Signal;HPM_P1;HPM_P2
2022/08/27 00:03:09;;;;;;;0.03;0.03;;;;;;;17.17;100.00;101706.72;10320810;28;20094;-80
2022/08/27 00:08:12;;;;;;;0.38;0.17;;;;;;;17.11;100.00;101699.69;10338914;28;20133;-80
2022/08/27 00:13:14;;;;;;;0.00;0.00;;;;;;;17.17;100.00;101690.19;10316263;28;20050;-76
2022/08/27 00:18:16;;;;;;;0.10;0.10;;;;;;;17.13;100.00;101681.47;10317784;28;20059;-75
2022/08/27 00:23:23;;;;;;;0.00;0.00;;;;;;;17.11;100.00;101691.03;10284390;28;20141;-75
2022/08/27 00:28:28;;;;;;;0.00;0.00;;;;;;;17.15;100.00;101686.72;10331312;28;20094;-75
2022/08/27 00:33:30;;;;;;;0.10;0.10;;;;;;;17.22;100.00;101680.72;10357093;28;20064;-75
2022/08/27 00:38:32;;;;;;;0.00;0.00;;;;;;;17.06;100.00;101687.47;10346026;28;20054;-75
2022/08/27 00:43:56;;;;;;;0.03;0.03;;;;;;;17.08;100.00;101681.44;10326684;28;20157;-76
2022/08/27 00:49:08;;;;;;;0.20;0.20;;;;;;;17.01;100.00;101689.16;10322728;28;20050;-75
2022/08/27 00:54:10;;;;;;;1.17;0.55;;;;;;;17.00;100.00;101687.41;10322561;28;20057;-75
2022/08/27 00:59:23;;;;;;;0.38;0.17;;;;;;;16.92;100.00;101689.91;10337896;28;20049;-75
2022/08/27 01:04:25;;;;;;;0.52;0.52;;;;;;;16.92;100.00;101682.97;10341241;28;20133;-76
2022/08/27 01:09:28;;;;;;;1.15;1.08;;;;;;;16.94;100.00;101680.41;10342882;28;20056;-75
2022/08/27 01:14:30;;;;;;;0.00;0.00;;;;;;;16.88;100.00;101682.88;10321804;28;20054;-76
2022/08/27 01:19:42;;;;;;;0.38;0.32;;;;;;;16.89;100.00;101684.63;10338856;28;20104;-76
2022/08/27 01:24:47;;;;;;;0.10;0.10;;;;;;;16.87;100.00;101678.53;10332608;28;20058;-75
2022/08/27 01:29:49;;;;;;;0.00;0.00;;;;;;;16.83;100.00;101674.16;10337331;28;20154;-75
2022/08/27 01:34:52;;;;;;;0.10;0.10;;;;;;;16.72;100.00;101680.09;10331623;28;20058;-75
2022/08/27 01:40:03;;;;;;;0.00;0.00;;;;;;;16.71;100.00;101673.16;10328455;28;20130;-75
2022/08/27 01:45:19;;;;;;;0.22;0.22;;;;;;;16.71;100.00;101667.97;10331432;28;20085;-75
2022/08/27 01:50:24;;;;;;;0.10;0.08;;;;;;;16.69;100.00;101671.38;10337963;28;20078;-76
2022/08/27 01:55:26;;;;;;;0.43;0.40;;;;;;;16.69;100.00;101671.38;10336396;28;20142;-75
2022/08/27 02:00:33;;;;;;;4.03;0.30;;;;;;;16.66;100.00;101669.63;10319737;28;20468;-75
2022/08/27 02:05:37;;;;;;;0.00;0.00;;;;;;;16.55;100.00;101663.41;10325382;28;20051;-74
2022/08/27 02:10:47;;;;;;;0.60;0.30;;;;;;;16.49;100.00;101664.19;10301985;28;20058;-75
2022/08/27 02:15:49;;;;;;;0.10;0.10;;;;;;;16.48;100.00;101668.53;10336498;28;20081;-74
2022/08/27 02:20:50;;;;;;;0.40;0.10;;;;;;;16.41;100.00;101671.91;10327060;28;20054;-75
2022/08/27 02:25:52;;;;;;;0.00;0.00;;;;;;;16.36;100.00;101673.53;10336438;28;20050;-75
2022/08/27 02:30:54;;;;;;;0.13;0.13;;;;;;;16.31;100.00;101670.00;10335967;28;20057;-75
2022/08/27 02:35:56;;;;;;;0.08;0.03;;;;;;;16.21;100.00;101676.81;10336007;28;20117;-74
2022/08/27 02:40:57;;;;;;;0.38;0.38;;;;;;;16.27;100.00;101663.03;10318381;28;20401;-75
2022/08/27 02:46:00;;;;;;;0.30;0.30;;;;;;;16.03;100.00;101669.59;10353107;28;20081;-74
2022/08/27 02:51:04;;;;;;;0.00;0.00;;;;;;;16.04;100.00;101670.47;10360984;28;20073;-75
2022/08/27 02:56:06;;;;;;;0.30;0.20;;;;;;;15.85;100.00;101671.06;10344922;28;20058;-75
2022/08/27 03:01:08;;;;;;;0.00;0.00;;;;;;;15.75;100.00;101668.25;10320706;28;20485;-74
2022/08/27 03:06:14;;;;;;;0.47;0.40;;;;;;;15.74;100.00;101667.38;10365742;28;20073;-75
2022/08/27 03:11:15;;;;;;;0.10;0.10;;;;;;;15.73;100.00;101665.63;10358071;28;20080;-74
2022/08/27 03:16:17;;;;;;;0.35;0.20;;;;;;;15.68;100.00;101656.88;10312753;28;20073;-75
2022/08/27 03:21:23;;;;;;;0.20;0.20;;;;;;;15.68;100.00;101656.88;10334758;28;20050;-74
2022/08/27 03:26:24;;;;;;;0.65;0.30;;;;;;;15.65;100.00;101662.88;10326775;28;20057;-75
2022/08/27 03:31:26;;;;;;;0.20;0.20;;;;;;;15.64;100.00;101668.06;10343661;28;20125;-75
2022/08/27 03:36:29;;;;;;;0.25;0.22;;;;;;;15.55;100.00;101669.66;10335875;28;20054;-75
2022/08/27 03:41:31;;;;;;;0.10;0.10;;;;;;;15.53;100.00;101667.88;10356143;28;20050;-75
2022/08/27 03:46:53;;;;;;;0.73;0.40;;;;;;;15.47;100.00;101668.63;10334822;28;20086;-75
2022/08/27 03:51:55;;;;;;;0.00;0.00;;;;;;;15.53;100.00;101671.34;10319800;28;20493;-74
2022/08/27 03:56:57;;;;;;;0.20;0.10;;;;;;;15.52;100.00;101698.19;10343540;28;20461;-75
2022/08/27 04:02:00;;;;;;;0.08;0.00;;;;;;;15.39;100.00;101696.19;10347070;28;20536;-75
2022/08/27 04:07:01;;;;;;;0.45;0.30;;;;;;;15.43;100.00;101697.13;10333329;28;20054;-75
2022/08/27 04:12:04;;;;;;;1.92;0.28;;;;;;;15.52;100.00;101695.59;10333418;28;20086;-74
2022/08/27 04:17:05;;;;;;;0.30;0.30;;;;;;;15.53;100.00;101699.03;10333256;28;20050;-75
2022/08/27 04:22:07;;;;;;;1.70;0.40;;;;;;;15.49;100.00;101698.13;10315895;28;20050;-75
2022/08/27 04:27:10;;;;;;;0.22;0.15;;;;;;;15.42;100.00;101693.66;10333241;28;20146;-75
2022/08/27 04:32:11;;;;;;;0.05;0.05;;;;;;;15.49;100.00;101698.13;10333068;28;20109;-74
2022/08/27 04:37:13;;;;;;;1.17;0.35;;;;;;;15.44;100.00;101699.75;10333828;28;20054;-75
2022/08/27 04:42:22;;;;;;;0.22;0.17;;;;;;;15.37;100.00;101708.28;10325286;28;20486;-75
2022/08/27 04:47:23;;;;;;;1.75;0.32;;;;;;;15.41;100.00;101714.41;10328878;28;20084;-75
2022/08/27 04:52:26;;;;;;;0.25;0.17;;;;;;;15.43;100.00;101718.78;10349494;28;20078;-75
2022/08/27 04:57:27;;;;;;;0.10;0.10;;;;;;;15.31;100.00;101719.41;10353752;28;20066;-74
2022/08/27 05:02:29;;;;;;;0.63;0.35;;;;;;;15.05;100.00;101711.13;10361361;28;20050;-74
2022/08/27 05:07:31;;;;;;;0.70;0.52;;;;;;;15.05;100.00;101721.50;10349163;28;20046;-74
2022/08/27 05:12:32;;;;;;;0.57;0.40;;;;;;;14.83;100.00;101726.22;10359313;28;20057;-74
2022/08/27 05:17:34;;;;;;;1.45;0.40;;;;;;;14.82;100.00;101721.88;10341860;28;20085;-75
2022/08/27 05:22:36;;;;;;;0.15;0.08;;;;;;;14.68;100.00;101725.91;10339654;28;20064;-74
2022/08/27 05:27:37;;;;;;;0.63;0.52;;;;;;;14.77;100.00;101726.09;10336199;28;20050;-75
2022/08/27 05:32:39;;;;;;;0.65;0.20;;;;;;;14.90;100.00;101728.13;10334482;28;20146;-74
2022/08/27 05:37:41;;;;;;;0.47;0.32;;;;;;;14.83;100.00;101734.03;10301649;28;20125;-75
2022/08/27 05:42:43;;;;;;;0.20;0.20;;;;;;;14.78;100.00;101727.84;10338543;28;20557;-75
2022/08/27 05:47:51;;;;;;;0.10;0.10;;;;;;;14.70;100.00;101727.69;10321807;28;20060;-74
2022/08/27 05:52:53;;;;;;;0.38;0.32;;;;;;;14.80;100.00;101735.66;10337692;28;20090;-74
2022/08/27 05:57:55;;;;;;;0.00;0.00;;;;;;;14.86;100.00;101740.97;10320489;28;20509;-75
2022/08/27 06:02:56;;;;;;;0.30;0.30;;;;;;;14.79;100.00;101733.91;10337586;28;20058;-75
2022/08/27 06:07:58;;;;;;;0.73;0.60;;;;;;;14.97;100.00;101734.28;10333084;28;20073;-75
2022/08/27 06:13:00;;;;;;;0.20;0.20;;;;;;;15.04;100.00;101727.53;10319739;28;20057;-75
2022/08/27 06:18:04;;;;;;;5.28;0.75;;;;;;;15.25;100.00;101729.69;10336733;28;20062;-75
2022/08/27 06:23:05;;;;;;;0.40;0.20;;;;;;;15.34;100.00;101729.84;10319014;28;20054;-76
2022/08/27 06:28:07;;;;;;;0.35;0.35;;;;;;;15.57;100.00;101718.16;10318791;28;20050;-75
2022/08/27 06:33:09;;;;;;;0.10;0.10;;;;;;;15.75;100.00;101715.88;10334655;28;20050;-75
2022/08/27 06:38:10;;;;;;;0.08;0.08;;;;;;;15.99;100.00;101715.47;10316352;28;20074;-75
2022/08/27 06:43:12;;;;;;;0.30;0.20;;;;;;;16.22;100.00;101720.16;10335726;28;20082;-75
2022/08/27 06:48:14;;;;;;;0.43;0.30;;;;;;;16.51;100.00;101706.72;10321345;28;20505;-74
2022/08/27 06:53:15;;;;;;;0.10;0.10;;;;;;;16.70;100.00;101704.34;10313779;28;20525;-75
2022/08/27 06:58:18;;;;;;;0.10;0.10;;;;;;;17.22;100.00;101693.75;10317859;28;20078;-75
2022/08/27 07:03:20;;;;;;;0.15;0.15;;;;;;;17.31;100.00;101688.66;10340200;28;20054;-75
2022/08/27 07:08:31;;;;;;;0.10;0.10;;;;;;;17.78;100.00;101684.75;10336403;28;20058;-74
2022/08/27 07:13:33;;;;;;;0.10;0.10;;;;;;;18.56;100.00;101686.16;10320151;28;20131;-75
2022/08/27 07:18:35;;;;;;;0.40;0.20;;;;;;;18.45;100.00;101687.81;10294453;28;20059;-75
2022/08/27 07:23:39;;;;;;;0.08;0.08;;;;;;;18.62;100.00;101680.09;10338668;28;20057;-76
2022/08/27 07:28:43;;;;;;;0.52;0.22;;;;;;;18.71;100.00;101675.81;10322407;28;20133;-75
2022/08/27 07:33:45;;;;;;;0.55;0.55;;;;;;;18.53;100.00;101678.31;10318254;28;20054;-75
2022/08/27 07:38:53;;;;;;;0.17;0.17;;;;;;;19.38;100.00;101668.19;10315452;28;20113;-75
2022/08/27 07:49:28;;;;;;;0.13;0.00;;;;;;;19.60;100.00;101669.09;10339415;28;20054;-76
2022/08/27 07:54:34;;;;;;;1.13;0.38;;;;;;;19.84;100.00;101656.91;10342192;28;20072;-77
2022/08/27 07:59:36;;;;;;;0.73;0.38;;;;;;;19.81;100.00;101668.19;10356733;28;20104;-77
2022/08/27 08:04:38;;;;;;;0.00;0.00;;;;;;;19.27;100.00;101676.00;10357998;28;20054;-75
2022/08/27 08:09:40;;;;;;;0.55;0.20;;;;;;;19.16;100.00;101682.94;10366914;28;20061;-75
2022/08/27 08:14:41;;;;;;;0.05;0.05;;;;;;;19.34;100.00;101677.75;10325617;28;20051;-75
2022/08/27 08:19:43;;;;;;;0.10;0.10;;;;;;;19.88;100.00;101684.78;10343719;28;20141;-76
2022/08/27 08:25:06;;;;;;;0.08;0.08;;;;;;;19.96;100.00;101688.28;10354221;28;20054;-75
2022/08/27 08:30:14;;;;;;;0.35;0.28;;;;;;;20.74;100.00;101682.88;10316999;28;20046;-76
2022/08/27 08:35:42;;;;;;;132.05;79.50;;;;;;;21.24;100.00;101673.91;10325322;28;20174;-76
2022/08/27 08:40:49;;;;;;;0.65;0.20;;;;;;;21.31;100.00;101677.34;10306673;28;20061;-76
2022/08/27 08:45:52;;;;;;;0.15;0.15;;;;;;;20.36;100.00;101682.09;10313331;28;20101;-76
2022/08/27 08:51:01;;;;;;;1.33;0.55;;;;;;;19.96;100.00;101685.66;10330550;28;20055;-77
2022/08/27 08:57:09;;;;;;;0.10;0.10;;;;;;;19.73;100.00;101693.47;10347034;28;20548;-76
2022/08/27 09:02:15;;;;;;;0.08;0.05;;;;;;;19.81;100.00;101688.25;10338036;28;20499;-76
2022/08/27 09:07:40;;;;;;;0.60;0.30;;;;;;;19.89;100.00;101683.94;10308984;28;20536;-77
2022/08/27 09:12:45;;;;;;;0.10;0.10;;;;;;;20.69;100.00;101684.63;10339000;28;20137;-77
2022/08/27 09:30:54;;;;;;;0.40;0.10;;;;;;;23.13;100.00;101651.00;10358436;28;20049;-76
2022/08/27 09:36:02;;;;;;;2.75;0.25;;;;;;;21.20;100.00;101666.94;10312553;28;20058;-75
2022/08/27 09:41:54;;;;;;;0.20;0.10;;;;;;;23.53;100.00;101664.44;10320759;28;20060;-75
2022/08/27 09:47:01;;;;;;;0.00;0.00;;;;;;;23.30;91.59;101655.16;10280333;28;20298;-76
2022/08/27 09:52:03;;;;;;;0.20;0.10;;;;;;;22.69;82.49;101664.75;10316651;28;20092;-76
2022/08/27 09:57:08;;;;;;;0.00;0.00;;;;;;;21.69;96.09;101670.13;10361257;28;20137;-74
2022/08/27 10:02:21;;;;;;;0.00;0.00;;;;;;;22.58;93.59;101655.22;10375970;28;20212;-75
2022/08/27 10:07:36;;;;;;;0.00;0.00;;;;;;;23.38;86.94;101655.91;10349874;28;20089;-75
2022/08/27 10:12:45;;;;;;;0.03;0.00;;;;;;;21.67;95.25;101661.41;10340361;28;20057;-75
2022/08/27 10:18:04;;;;;;;0.40;0.10;;;;;;;21.62;98.05;101650.09;10331907;28;20054;-76
2022/08/27 10:36:34;;;;;;;0.00;0.00;;;;;;;23.57;83.33;101655.59;10330457;28;20049;-75
2022/08/27 10:41:49;;;;;;;0.00;0.00;;;;;;;22.93;89.27;101653.03;10353437;28;20050;-75
2022/08/27 10:47:12;;;;;;;0.20;0.20;;;;;;;22.41;94.53;101662.47;10349151;28;20054;-76
2022/08/27 10:52:24;;;;;;;0.00;0.00;;;;;;;21.66;98.34;101664.91;10327289;28;20541;-76
2022/08/27 10:57:41;;;;;;;0.00;0.00;;;;;;;21.38;95.76;101667.69;10334937;28;20064;-76
2022/08/27 11:03:09;;;;;;;0.00;0.00;;;;;;;21.85;91.67;101653.38;10303879;28;20078;-75
2022/08/27 11:08:27;;;;;;;0.03;0.00;;;;;;;21.82;92.75;101656.03;10322115;28;20060;-76
2022/08/27 11:13:45;;;;;;;0.10;0.10;;;;;;;24.02;74.22;101650.47;10317372;28;20054;-75
2022/08/27 11:18:59;;;;;;;0.00;0.00;;;;;;;23.16;80.36;101649.22;10333486;28;20064;-76
2022/08/27 11:24:37;;;;;;;0.00;0.00;;;;;;;21.96;91.08;101648.03;10319449;28;20061;-75
2022/08/27 11:29:52;;;;;;;0.20;0.10;;;;;;;22.21;97.19;101644.28;10310302;28;20171;-74
2022/08/27 11:35:21;;;;;;;0.43;0.13;;;;;;;22.07;96.32;101647.91;10319010;28;20057;-76
2022/08/27 11:40:42;;;;;;;0.00;0.00;;;;;;;22.03;91.60;101648.81;10314936;28;20043;-76
2022/08/27 11:45:55;;;;;;;0.00;0.00;;;;;;;22.35;93.11;101647.63;10318083;28;20566;-75
2022/08/27 11:51:41;;;;;;;0.05;0.05;;;;;;;22.59;93.91;101643.00;10287519;28;20085;-75
2022/08/27 11:56:42;;;;;;;0.00;0.00;;;;;;;21.84;96.58;101651.63;10329715;28;20565;-75
2022/08/27 12:01:44;;;;;;;0.73;0.73;;;;;;;21.74;94.25;101649.13;10334551;28;20141;-76
2022/08/27 12:07:04;;;;;;;0.00;0.00;;;;;;;21.90;86.21;101642.81;10335015;28;20047;-76
2022/08/27 12:12:21;;;;;;;0.40;0.00;;;;;;;22.55;86.56;101646.53;10334691;28;20409;-76
2022/08/27 12:17:35;;;;;;;0.00;0.00;;;;;;;22.67;85.62;101643.78;10294108;28;20054;-77
2022/08/27 12:28:25;;;;;;;0.00;0.00;;;;;;;22.46;82.77;101647.53;10351620;28;20061;-75
2022/08/27 12:33:34;;;;;;;0.20;0.00;;;;;;;22.72;85.21;101644.56;10303427;28;20144;-75
2022/08/27 12:38:43;;;;;;;0.70;0.38;;;;;;;22.46;88.21;101643.13;10309206;28;20050;-76
2022/08/27 12:44:03;;;;;;;0.10;0.10;;;;;;;22.38;89.57;101644.94;10333954;28;20057;-76
2022/08/27 12:49:05;;;;;;;0.20;0.10;;;;;;;22.21;86.01;101631.16;10316818;28;20089;-75
2022/08/27 12:54:57;;;;;;;0.00;0.00;;;;;;;22.44;88.29;101625.66;10334457;28;20066;-76
2022/08/27 13:00:18;;;;;;;0.35;0.30;;;;;;;22.81;93.04;101626.06;10346575;28;20048;-76
2022/08/27 13:05:36;;;;;;;0.20;0.10;;;;;;;22.35;86.52;101624.84;10373037;28;20074;-76
2022/08/27 13:10:38;;;;;;;0.00;0.00;;;;;;;22.21;87.72;101621.50;10397266;28;20050;-76
2022/08/27 13:15:43;;;;;;;0.10;0.00;;;;;;;22.23;86.76;101621.50;10369702;28;20406;-76
2022/08/27 13:20:48;;;;;;;0.30;0.10;;;;;;;22.48;89.68;101624.75;10379752;28;20050;-75
2022/08/27 13:26:01;;;;;;;0.10;0.10;;;;;;;22.40;84.68;101631.84;10382128;28;20054;-75
2022/08/27 13:31:05;;;;;;;2.72;0.10;;;;;;;22.12;93.24;101627.75;10369954;28;20050;-75
2022/08/27 13:36:10;;;;;;;0.68;0.20;;;;;;;21.59;99.61;101621.25;10378259;28;20038;-76
2022/08/27 13:41:26;;;;;;;0.20;0.10;;;;;;;21.67;99.45;101625.53;10354070;28;20051;-76
2022/08/27 13:46:30;;;;;;;0.10;0.10;;;;;;;21.71;100.00;101622.03;10374637;28;20061;-76
2022/08/27 13:51:34;;;;;;;0.00;0.00;;;;;;;22.07;100.00;101628.66;10380238;28;20050;-75
2022/08/27 13:57:02;;;;;;;0.52;0.25;;;;;;;21.39;100.00;101624.88;10374993;28;20073;-76
2022/08/27 14:02:10;;;;;;;0.28;0.10;;;;;;;21.93;100.00;101619.19;10361987;28;20051;-76
2022/08/27 14:07:29;;;;;;;0.00;0.00;;;;;;;22.24;100.00;101604.84;10378988;28;20054;-75
2022/08/27 14:12:35;;;;;;;0.00;0.00;;;;;;;21.76;100.00;101616.75;10376412;28;20057;-75
2022/08/27 14:17:37;;;;;;;0.10;0.10;;;;;;;21.98;99.47;101611.28;10359939;28;20278;-76
2022/08/27 14:22:39;;;;;;;0.00;0.00;;;;;;;21.96;100.00;101623.53;10368908;28;20051;-75
2022/08/27 14:27:41;;;;;;;0.10;0.10;;;;;;;22.14;100.00;101610.22;10320610;28;20105;-75
2022/08/27 14:32:57;;;;;;;0.00;0.00;;;;;;;22.25;100.00;101606.59;10336628;28;20106;-76
2022/08/27 14:38:22;;;;;;;0.10;0.05;;;;;;;22.63;100.00;101618.41;10319495;28;20061;-75
2022/08/27 14:43:24;;;;;;;0.00;0.00;;;;;;;22.04;97.29;101616.44;10335485;28;20558;-75
2022/08/27 14:48:30;;;;;;;0.03;0.03;;;;;;;22.46;100.00;101611.63;10283055;28;20450;-75
2022/08/27 14:53:32;;;;;;;0.00;0.00;;;;;;;22.33;96.35;101615.25;10299018;28;20051;-79
2022/08/27 14:58:34;;;;;;;0.00;0.00;;;;;;;22.44;98.08;101615.16;10320523;28;20046;-80
2022/08/27 15:03:46;;;;;;;0.68;0.28;;;;;;;22.57;100.00;101618.50;10347774;28;20541;-80
2022/08/27 15:08:48;;;;;;;0.28;0.03;;;;;;;21.90;98.39;101629.69;10360663;28;20047;-79
2022/08/27 15:13:52;;;;;;;0.10;0.10;;;;;;;22.22;96.72;101631.13;10354558;28;20410;-80
2022/08/27 15:18:53;;;;;;;0.00;0.00;;;;;;;22.34;96.74;101625.72;10335651;28;20141;-79
2022/08/27 15:24:08;;;;;;;0.00;0.00;;;;;;;21.90;98.73;101627.06;10346610;28;20070;-80
2022/08/27 15:29:10;;;;;;;1.13;0.00;;;;;;;21.70;98.62;101632.53;10322160;28;20050;-82
2022/08/27 15:34:11;;;;;;;0.10;0.10;;;;;;;21.79;98.07;101640.28;10314957;28;20053;-81
2022/08/27 15:39:13;;;;;;;0.00;0.00;;;;;;;21.84;100.00;101638.53;10317115;28;20054;-81
2022/08/27 15:44:15;;;;;;;0.00;0.00;;;;;;;21.97;100.00;101638.38;10313525;28;20137;-80
2022/08/27 15:49:17;;;;;;;0.00;0.00;;;;;;;21.95;97.96;101634.91;10314414;28;20081;-80
2022/08/27 15:54:19;;;;;;;0.00;0.00;;;;;;;21.61;100.00;101638.72;10332918;28;20394;-80
2022/08/27 15:59:21;;;;;;;2.20;0.47;;;;;;;21.51;100.00;101630.03;10334202;28;20054;-80
2022/08/27 16:04:22;;;;;;;0.00;0.00;;;;;;;21.52;99.19;101633.53;10334035;28;20406;-80
2022/08/27 16:09:26;;;;;;;2.70;0.20;;;;;;;21.17;99.67;101638.16;10333262;28;20051;-79
2022/08/27 16:14:28;;;;;;;0.00;0.00;;;;;;;21.19;100.00;101644.22;10303177;28;20109;-80
2022/08/27 16:19:30;;;;;;;0.00;0.00;;;;;;;21.30;100.00;101640.66;10320320;28;20085;-80
2022/08/27 16:24:32;;;;;;;0.00;0.00;;;;;;;21.03;100.00;101626.88;10297859;28;20051;-79
2022/08/27 16:29:35;;;;;;;0.00;0.00;;;;;;;21.08;100.00;101631.19;10315933;28;20055;-80
2022/08/27 16:34:37;;;;;;;0.05;0.05;;;;;;;20.89;100.00;101634.81;10319635;28;20104;-79
2022/08/27 16:39:39;;;;;;;0.00;0.00;;;;;;;21.05;100.00;101635.59;10349790;28;20117;-79
2022/08/27 16:44:41;;;;;;;0.00;0.00;;;;;;;20.97;100.00;101626.91;10335651;28;20561;-81
2022/08/27 16:55:03;;;;;;;0.25;0.13;;;;;;;20.75;100.00;101627.91;10333472;28;20054;-80
2022/08/27 17:00:05;;;;;;;0.30;0.10;;;;;;;20.79;100.00;101628.75;10321171;28;20066;-79
2022/08/27 17:05:07;;;;;;;0.10;0.05;;;;;;;20.77;100.00;101630.50;10342443;28;20419;-80
2022/08/27 17:10:39;;;;;;;0.00;0.00;;;;;;;20.59;100.00;101641.91;10336654;28;20086;-79
2022/08/27 17:15:41;;;;;;;0.00;0.00;;;;;;;20.55;100.00;101640.19;10340102;28;20054;-80
2022/08/27 17:20:45;;;;;;;0.05;0.05;;;;;;;20.38;100.00;101642.84;10321593;28;20077;-79
2022/08/27 17:25:47;;;;;;;0.38;0.00;;;;;;;20.43;100.00;101639.34;10321000;28;20054;-79
2022/08/27 17:30:49;;;;;;;0.22;0.03;;;;;;;20.34;100.00;101641.97;10325547;28;20059;-79
2022/08/27 17:35:51;;;;;;;0.00;0.00;;;;;;;20.31;100.00;101642.00;10336675;28;20046;-79
2022/08/27 17:40:53;;;;;;;3.95;0.32;;;;;;;20.27;100.00;101638.53;10318694;28;20051;-80
2022/08/27 17:45:56;;;;;;;0.00;0.00;;;;;;;20.22;100.00;101637.66;10331580;28;20454;-79
2022/08/27 17:50:58;;;;;;;0.10;0.00;;;;;;;20.16;100.00;101637.66;10333813;28;20414;-80
2022/08/27 17:56:00;;;;;;;0.22;0.00;;;;;;;20.09;100.00;101636.84;10302893;28;20065;-79
2022/08/27 18:01:01;;;;;;;0.00;0.00;;;;;;;20.07;100.00;101643.81;10336958;28;20057;-79
2022/08/27 18:06:05;;;;;;;0.00;0.00;;;;;;;20.04;100.00;101648.16;10320263;28;20113;-79
2022/08/27 18:11:09;;;;;;;0.00;0.00;;;;;;;19.99;100.00;101650.78;10330457;28;20058;-80
2022/08/27 18:16:11;;;;;;;0.20;0.15;;;;;;;19.89;100.00;101663.00;10337106;28;20461;-79
2022/08/27 18:21:12;;;;;;;0.00;0.00;;;;;;;19.86;100.00;101665.63;10337064;28;20050;-81
2022/08/27 18:26:51;;;;;;;0.00;0.00;;;;;;;19.80;100.00;101671.72;10336583;28;20502;-79
2022/08/27 18:31:52;;;;;;;0.00;0.00;;;;;;;19.75;100.00;101683.03;10329656;28;20383;-80
2022/08/27 18:36:54;;;;;;;0.88;0.20;;;;;;;19.62;100.00;101690.00;10338216;28;20054;-79
2022/08/27 18:41:55;;;;;;;0.00;0.00;;;;;;;19.52;100.00;101690.84;10322488;28;20057;-79
2022/08/27 18:46:57;;;;;;;0.00;0.00;;;;;;;19.41;100.00;101699.56;10320691;28;20083;-81
2022/08/27 18:51:59;;;;;;;0.00;0.00;;;;;;;19.32;100.00;101710.81;10338668;28;20109;-79
2022/08/27 18:57:01;;;;;;;0.00;0.00;;;;;;;19.23;100.00;101721.28;10338757;28;20457;-78
2022/08/27 19:02:03;;;;;;;0.00;0.00;;;;;;;19.10;100.00;101727.34;10321113;28;20053;-79
2022/08/27 19:07:05;;;;;;;0.30;0.00;;;;;;;18.84;100.00;101739.34;10343654;28;20054;-79
2022/08/27 19:12:07;;;;;;;0.25;0.05;;;;;;;18.62;100.00;101742.72;10327244;28;20054;-79
2022/08/27 19:17:23;;;;;;;0.98;0.55;;;;;;;18.49;100.00;101747.00;10326844;28;20054;-80
2022/08/27 19:22:25;;;;;;;0.17;0.03;;;;;;;18.30;100.00;101754.69;10342723;28;20054;-79
2022/08/27 19:27:28;;;;;;;0.00;0.00;;;;;;;18.09;100.00;101760.63;10381967;28;20651;-79
2022/08/27 19:32:30;;;;;;;0.32;0.20;;;;;;;17.90;100.00;101764.78;10385959;28;20030;-79
2022/08/27 19:37:36;;;;;;;0.00;0.00;;;;;;;17.80;100.00;101775.97;10384735;28;20081;-79
2022/08/27 19:42:40;;;;;;;0.10;0.10;;;;;;;17.68;100.00;101782.81;10366509;28;20057;-79
2022/08/27 19:47:42;;;;;;;0.00;0.00;;;;;;;17.55;100.00;101791.34;10335873;28;20490;-78
2022/08/27 19:52:43;;;;;;;0.10;0.10;;;;;;;17.41;100.00;101794.66;10336736;28;20050;-79
2022/08/27 19:57:45;;;;;;;0.00;0.00;;;;;;;17.29;100.00;101802.34;10317986;28;20199;-79
2022/08/27 20:02:47;;;;;;;0.00;0.00;;;;;;;17.16;100.00;101808.25;10374763;28;20058;-80
2022/08/27 20:07:52;;;;;;;0.13;0.00;;;;;;;16.81;100.00;101804.28;10354078;28;20105;-80
2022/08/27 20:12:53;;;;;;;0.00;0.00;;;;;;;16.70;100.00;101808.44;10327694;28;20051;-79
2022/08/27 20:17:58;;;;;;;0.00;0.00;;;;;;;16.50;100.00;101820.28;10345636;28;20089;-80
2022/08/27 20:23:03;;;;;;;0.40;0.20;;;;;;;16.40;100.00;101821.00;10327498;28;20090;-79
2022/08/27 20:28:06;;;;;;;0.00;0.00;;;;;;;16.30;100.00;101829.47;10320650;28;20047;-79
2022/08/27 20:33:27;;;;;;;0.00;0.00;;;;;;;16.16;100.00;101827.50;10344936;28;20050;-79
2022/08/27 20:38:29;;;;;;;5.78;0.93;;;;;;;16.09;100.00;101836.06;10344198;28;20058;-78
2022/08/27 20:43:32;;;;;;;0.10;0.10;;;;;;;15.96;100.00;101847.09;10343765;28;20046;-79
2022/08/27 20:48:33;;;;;;;0.13;0.13;;;;;;;15.76;100.00;101852.72;10323092;28;20054;-79
2022/08/27 20:53:35;;;;;;;10.40;0.75;;;;;;;15.68;100.00;101864.69;10323242;28;20139;-79
2022/08/27 21:03:57;;;;;;;0.00;0.00;;;;;;;15.57;100.00;101874.00;10331250;28;20054;-79
2022/08/27 21:08:59;;;;;;;0.60;0.60;;;;;;;15.37;100.00;101875.31;10336625;28;20498;-79
2022/08/27 21:14:00;;;;;;;0.80;0.80;;;;;;;15.18;100.00;101889.59;10327422;28;20043;-79
2022/08/27 21:19:02;;;;;;;0.30;0.30;;;;;;;15.13;100.00;101893.81;10341618;28;20060;-80
2022/08/27 21:24:04;;;;;;;0.25;0.15;;;;;;;15.07;100.00;101906.66;10338031;28;20093;-79
2022/08/27 21:29:13;;;;;;;2.67;0.45;;;;;;;14.96;100.00;101909.00;10318722;28;20097;-80
2022/08/27 21:34:15;;;;;;;14.37;0.73;;;;;;;14.69;100.00;101915.25;10328909;28;20051;-79
2022/08/27 21:39:16;;;;;;;0.47;0.47;;;;;;;14.58;100.00;101917.56;10338457;28;20552;-79
2022/08/27 21:44:21;;;;;;;0.32;0.32;;;;;;;14.54;100.00;101926.09;10317345;28;20142;-80
2022/08/27 21:49:22;;;;;;;0.00;0.00;;;;;;;14.51;100.00;101930.34;10330471;28;20063;-80
2022/08/27 21:54:24;;;;;;;0.00;0.00;;;;;;;14.47;100.00;101929.38;10344736;28;20579;-79
2022/08/27 21:59:28;;;;;;;0.22;0.20;;;;;;;14.41;100.00;101934.38;10314982;28;20149;-79
2022/08/27 22:04:29;;;;;;;0.35;0.20;;;;;;;14.38;100.00;101929.13;10306167;28;20058;-80
2022/08/27 22:09:33;;;;;;;0.00;0.00;;;;;;;14.24;100.00;101942.59;10355594;28;20053;-80
2022/08/27 22:14:35;;;;;;;0.20;0.10;;;;;;;14.09;100.00;101937.00;10319167;28;20101;-80
2022/08/27 22:19:38;;;;;;;3.55;0.13;;;;;;;13.94;100.00;101946.09;10295995;28;20050;-80
2022/08/27 22:24:39;;;;;;;0.20;0.10;;;;;;;13.87;100.00;101946.75;10319504;28;20082;-79
2022/08/27 22:29:41;;;;;;;0.05;0.05;;;;;;;13.72;100.00;101941.13;10299283;28;20061;-79
2022/08/27 22:34:43;;;;;;;0.50;0.20;;;;;;;13.74;100.00;101953.28;10312935;28;20046;-79
2022/08/27 22:39:44;;;;;;;0.38;0.38;;;;;;;13.70;100.00;101953.13;10322486;28;20060;-79
2022/08/27 22:44:46;;;;;;;1999.90;999.90;;;;;;;13.58;100.00;101949.34;10336090;28;20414;-79
2022/08/27 22:49:48;;;;;;;41.75;38.50;;;;;;;13.45;100.00;101960.13;10352956;28;20081;-79
2022/08/27 22:54:53;;;;;;;0.40;0.20;;;;;;;13.33;100.00;101966.66;10339278;28;20042;-79
2022/08/27 22:59:57;;;;;;;0.60;0.60;;;;;;;13.10;100.00;101965.94;10317994;28;20077;-79
2022/08/27 23:04:58;;;;;;;0.57;0.57;;;;;;;13.13;100.00;101980.69;10298141;28;20054;-80
2022/08/27 23:10:27;;;;;;;0.25;0.25;;;;;;;12.98;100.00;101986.22;10340613;28;20108;-79
2022/08/27 23:15:44;;;;;;;0.20;0.20;;;;;;;13.07;100.00;101985.66;10321393;28;20058;-79
2022/08/27 23:21:44;;;;;;;0.38;0.38;;;;;;;12.87;100.00;101988.44;10333869;28;20054;-79
2022/08/27 23:32:05;;;;;;;0.35;0.35;;;;;;;12.62;100.00;101990.19;10312318;28;20054;-79
2022/08/27 23:37:07;;;;;;;5.93;0.25;;;;;;;12.60;100.00;101975.44;10334006;28;20050;-79
2022/08/27 23:42:09;;;;;;;0.30;0.30;;;;;;;12.40;100.00;101985.97;10317060;28;20077;-79
2022/08/27 23:54:12;;;;;;;0.20;0.20;;;;;;;12.37;100.00;101991.03;10306663;28;20434;-79
2022/08/27 23:59:14;;;;;;;0.47;0.30;;;;;;;12.37;100.00;101991.91;10309659;28;20155;-80
